createdAt,value
2023-05-23T00:02:21.549Z,3.87
2023-05-23T00:04:49.730Z,3.90
2023-05-23T00:07:17.664Z,4.07
2023-05-23T00:09:45.628Z,4.33
2023-05-23T00:12:14.881Z,3.70
2023-05-23T00:14:43.053Z,3.87
2023-05-23T00:17:12.250Z,3.90
2023-05-23T00:19:40.184Z,3.93
2023-05-23T00:22:08.207Z,4.03
2023-05-23T00:24:36.166Z,4.40
2023-05-23T00:27:04.177Z,3.83
2023-05-23T00:29:33.732Z,3.80
2023-05-23T00:32:01.664Z,3.40
2023-05-23T00:34:29.974Z,4.80
2023-05-23T00:36:58.304Z,4.00
2023-05-23T00:39:26.359Z,4.23
2023-05-23T00:41:54.370Z,3.83
2023-05-23T00:44:22.759Z,4.60
2023-05-23T00:46:56.061Z,3.80
2023-05-23T00:49:24.281Z,3.70
2023-05-23T00:51:53.488Z,4.37
2023-05-23T00:54:25.674Z,4.00
2023-05-23T00:56:54.291Z,3.80
2023-05-23T00:59:23.372Z,4.40
2023-05-23T01:01:54.594Z,4.50
2023-05-23T01:04:26.380Z,4.60
2023-05-23T01:06:55.441Z,4.50
2023-05-23T01:09:25.493Z,4.63
2023-05-23T01:12:05.222Z,4.23
2023-05-23T01:14:39.841Z,4.40
2023-05-23T01:17:17.819Z,4.67
2023-05-23T01:19:56.989Z,4.67
2023-05-23T01:22:41.505Z,3.67
2023-05-23T01:25:19.260Z,4.73
2023-05-23T01:27:54.944Z,4.63
2023-05-23T01:30:24.624Z,4.30
2023-05-23T01:32:55.459Z,4.13
2023-05-23T01:35:26.833Z,4.87
2023-05-23T01:37:55.040Z,4.50
2023-05-23T01:40:23.419Z,4.33
2023-05-23T01:42:55.094Z,4.67
2023-05-23T01:45:23.220Z,5.13
2023-05-23T01:47:52.503Z,4.33
2023-05-23T01:50:20.703Z,5.67
2023-05-23T01:52:48.897Z,4.37
2023-05-23T01:55:23.056Z,5.27
2023-05-23T01:57:54.661Z,4.37
2023-05-23T02:00:23.214Z,4.87
2023-05-23T02:02:51.808Z,5.20
2023-05-23T02:05:19.906Z,4.60
2023-05-23T02:07:47.835Z,4.70
2023-05-23T02:10:15.955Z,5.20
2023-05-23T02:12:43.838Z,4.50
2023-05-23T02:15:13.265Z,4.33
2023-05-23T02:17:43.035Z,4.57
2023-05-23T02:20:11.730Z,5.00
2023-05-23T02:22:40.180Z,4.97
2023-05-23T02:25:10.326Z,5.27
2023-05-23T02:27:38.366Z,4.80
2023-05-23T02:30:07.693Z,4.93
2023-05-23T02:32:37.596Z,5.40
2023-05-23T02:35:06.642Z,6.07
2023-05-23T02:37:34.567Z,5.93
2023-05-23T02:40:02.458Z,5.20
2023-05-23T02:42:30.445Z,4.77
2023-05-23T02:44:58.323Z,5.70
2023-05-23T02:47:26.261Z,5.47
2023-05-23T02:49:55.616Z,6.60
2023-05-23T02:52:23.726Z,5.73
2023-05-23T02:54:51.908Z,4.83
2023-05-23T02:57:19.821Z,5.20
2023-05-23T02:59:47.720Z,4.97
2023-05-23T03:02:15.783Z,5.43
2023-05-23T03:04:43.703Z,5.43
2023-05-23T03:07:24.485Z,5.63
2023-05-23T03:09:56.233Z,5.27
2023-05-23T03:12:24.086Z,5.90
2023-05-23T03:14:51.920Z,5.57
2023-05-23T03:17:20.023Z,5.83
2023-05-23T03:19:47.974Z,5.70
2023-05-23T03:22:17.602Z,5.40
2023-05-23T03:24:45.458Z,5.57
2023-05-23T03:27:13.382Z,5.83
2023-05-23T03:29:41.216Z,5.50
2023-05-23T03:32:09.255Z,5.03
2023-05-23T03:34:38.596Z,5.27
2023-05-23T03:37:06.703Z,6.07
2023-05-23T03:39:38.704Z,5.60
2023-05-23T03:42:07.998Z,6.40
2023-05-23T03:44:35.897Z,5.80
2023-05-23T03:47:03.748Z,6.67
2023-05-23T03:49:31.586Z,5.50
2023-05-23T03:51:59.518Z,6.43
2023-05-23T03:54:27.398Z,5.93
2023-05-23T03:56:56.820Z,5.80
2023-05-23T03:59:24.676Z,5.47
2023-05-23T04:01:52.623Z,5.83
2023-05-23T04:04:21.041Z,6.03
2023-05-23T04:06:49.123Z,5.63
2023-05-23T04:09:17.021Z,6.00
2023-05-23T04:11:44.882Z,5.63
2023-05-23T04:14:14.563Z,6.70
2023-05-23T04:16:42.665Z,6.33
2023-05-23T04:19:12.304Z,6.27
2023-05-23T04:21:40.236Z,5.50
2023-05-23T04:24:08.252Z,6.60
2023-05-23T04:26:36.500Z,6.73
2023-05-23T04:29:06.005Z,6.33
2023-05-23T04:31:35.616Z,6.60
2023-05-23T04:34:03.985Z,6.17
2023-05-23T04:36:31.951Z,5.27
2023-05-23T04:38:59.835Z,5.80
2023-05-23T04:41:28.258Z,6.70
2023-05-23T04:43:58.506Z,6.50
2023-05-23T04:46:27.278Z,6.00
2023-05-23T04:48:58.688Z,5.77
2023-05-23T04:51:27.339Z,6.43
2023-05-23T04:53:55.284Z,6.40
2023-05-23T04:56:28.258Z,5.70
2023-05-23T04:58:57.038Z,6.03
2023-05-23T05:01:25.276Z,5.70
2023-05-23T05:03:53.436Z,6.87
2023-05-23T05:06:23.845Z,5.83
2023-05-23T05:08:51.947Z,6.70
2023-05-23T05:11:20.207Z,5.53
2023-05-23T05:13:48.107Z,5.00
2023-05-23T05:16:16.166Z,5.40
2023-05-23T05:18:44.145Z,5.60
2023-05-23T05:21:12.046Z,5.30
2023-05-23T05:23:41.874Z,5.63
2023-05-23T05:26:10.067Z,6.30
2023-05-23T05:28:38.258Z,5.33
2023-05-23T05:31:06.408Z,5.23
2023-05-23T05:33:36.372Z,5.73
2023-05-23T05:36:04.810Z,5.63
2023-05-23T05:38:32.747Z,5.20
2023-05-23T05:41:01.988Z,5.97
2023-05-23T05:43:29.904Z,5.93
2023-05-23T05:45:57.829Z,5.30
2023-05-23T05:48:25.757Z,5.87
2023-05-23T05:50:53.755Z,5.40
2023-05-23T05:53:21.616Z,6.43
2023-05-23T05:55:49.590Z,5.77
2023-05-23T05:58:19.496Z,5.53
2023-05-23T06:00:49.298Z,5.60
2023-05-23T06:03:17.462Z,5.70
2023-05-23T06:05:45.426Z,5.97
2023-05-23T06:08:13.348Z,5.87
2023-05-23T06:10:41.468Z,6.07
2023-05-23T06:13:09.503Z,5.93
2023-05-23T06:15:38.749Z,6.47
2023-05-23T06:18:06.796Z,5.43
2023-05-23T06:20:34.821Z,5.80
2023-05-23T06:23:05.501Z,6.03
2023-05-23T06:25:33.570Z,5.73
2023-05-23T06:28:01.572Z,6.10
2023-05-23T06:30:30.496Z,5.10
2023-05-23T06:32:59.877Z,6.13
2023-05-23T06:35:27.910Z,6.40
2023-05-23T06:37:55.802Z,5.37
2023-05-23T06:40:23.684Z,5.17
2023-05-23T06:42:51.686Z,5.80
2023-05-23T06:45:19.763Z,6.10
2023-05-23T06:47:48.255Z,5.87
2023-05-23T06:50:19.827Z,5.57
2023-05-23T06:52:48.007Z,5.90
2023-05-23T06:55:19.130Z,5.70
2023-05-23T06:57:47.319Z,5.23
2023-05-23T07:00:15.951Z,5.70
2023-05-23T07:02:45.556Z,6.33
2023-05-23T07:05:13.584Z,5.80
2023-05-23T07:07:43.333Z,6.77
2023-05-23T07:10:12.077Z,6.00
2023-05-23T07:12:40.100Z,6.30
2023-05-23T07:15:09.152Z,6.60
2023-05-23T07:17:37.240Z,6.03
2023-05-23T07:20:05.682Z,6.03
2023-05-23T07:22:33.620Z,5.90
2023-05-23T07:25:02.940Z,6.20
2023-05-23T07:27:30.852Z,6.10
2023-05-23T07:29:58.768Z,7.23
2023-05-23T07:32:26.831Z,5.53
2023-05-23T07:34:54.792Z,6.30
2023-05-23T07:37:22.736Z,6.60
2023-05-23T07:39:50.625Z,6.30
2023-05-23T07:42:19.889Z,6.37
2023-05-23T07:44:47.769Z,6.77
2023-05-23T07:47:15.694Z,6.93
2023-05-23T07:49:44.560Z,7.13
2023-05-23T07:52:12.457Z,6.97
2023-05-23T07:54:40.718Z,7.03
2023-05-23T07:57:08.988Z,6.10
2023-05-23T07:59:39.308Z,6.40
2023-05-23T08:02:07.931Z,6.50
2023-05-23T08:04:35.861Z,7.17
2023-05-23T08:07:06.084Z,7.20
2023-05-23T08:09:34.193Z,5.87
2023-05-23T08:12:02.135Z,6.80
2023-05-23T08:14:38.771Z,6.40
2023-05-23T08:17:18.942Z,7.13
2023-05-23T08:19:47.668Z,7.00
2023-05-23T08:22:16.010Z,6.10
2023-05-23T08:24:44.063Z,7.97
2023-05-23T08:27:12.245Z,7.20
2023-05-23T08:29:40.123Z,7.27
2023-05-23T08:32:08.070Z,7.00
2023-05-23T08:34:37.330Z,6.50
2023-05-23T08:37:05.819Z,6.20
2023-05-23T08:39:33.936Z,6.63
2023-05-23T08:42:01.998Z,7.27
2023-05-23T08:44:29.947Z,5.80
2023-05-23T08:47:05.516Z,7.80
2023-05-23T08:49:33.797Z,7.40
2023-05-23T08:52:04.660Z,7.07
2023-05-23T08:54:33.949Z,6.93
2023-05-23T08:57:02.900Z,6.97
2023-05-23T08:59:32.588Z,7.57
2023-05-23T09:02:01.879Z,7.10
2023-05-23T09:04:32.318Z,6.90
2023-05-23T09:07:02.334Z,7.00
2023-05-23T09:09:30.965Z,7.00
2023-05-23T09:12:01.155Z,7.10
2023-05-23T09:14:30.432Z,6.80
2023-05-23T09:17:04.586Z,6.90
2023-05-23T09:19:33.371Z,6.80
2023-05-23T09:22:03.917Z,7.23
2023-05-23T09:24:38.281Z,8.10
2023-05-23T09:27:07.473Z,6.57
2023-05-23T09:29:39.440Z,7.63
2023-05-23T09:32:13.892Z,6.70
2023-05-23T09:34:43.083Z,7.00
2023-05-23T09:37:19.294Z,7.40
2023-05-23T09:39:49.080Z,6.67
2023-05-23T09:42:21.891Z,7.27
2023-05-23T09:44:49.875Z,7.03
2023-05-23T09:47:18.183Z,7.20
2023-05-23T09:49:47.758Z,7.30
2023-05-23T09:52:17.128Z,7.40
2023-05-23T09:54:46.627Z,6.90
2023-05-23T09:57:16.985Z,6.93
2023-05-23T09:59:52.974Z,7.67
2023-05-23T10:02:40.640Z,8.20
2023-05-23T10:05:11.905Z,7.87
2023-05-23T10:07:41.265Z,7.40
2023-05-23T10:10:12.774Z,7.30
2023-05-23T10:12:48.752Z,7.10
2023-05-23T10:15:17.921Z,6.60
2023-05-23T10:17:59.495Z,6.73
2023-05-23T10:20:31.944Z,7.13
2023-05-23T10:23:02.382Z,7.10
2023-05-23T10:25:30.590Z,6.23
2023-05-23T10:28:03.208Z,6.63
2023-05-23T10:30:32.127Z,7.03
2023-05-23T10:33:01.932Z,7.30
2023-05-23T10:35:43.365Z,7.20
2023-05-23T10:38:21.923Z,6.47
2023-05-23T10:40:56.272Z,6.77
2023-05-23T10:43:30.180Z,7.10
2023-05-23T10:45:58.305Z,7.20
2023-05-23T10:48:35.399Z,6.73
2023-05-23T10:51:08.111Z,6.77
2023-05-23T10:53:39.534Z,7.60
2023-05-23T10:56:08.286Z,6.47
2023-05-23T10:58:38.078Z,6.80
2023-05-23T11:01:09.129Z,6.27
2023-05-23T11:03:53.787Z,6.40
2023-05-23T11:06:33.836Z,6.43
2023-05-23T11:09:08.223Z,7.90
2023-05-23T11:11:53.941Z,7.03
2023-05-23T11:14:32.336Z,6.23
2023-05-23T11:17:00.858Z,6.23
2023-05-23T11:19:30.101Z,5.87
2023-05-23T11:22:01.177Z,6.87
2023-05-23T11:24:53.179Z,6.30
2023-05-23T11:27:28.150Z,6.30
2023-05-23T11:30:04.888Z,7.40
2023-05-23T11:32:34.309Z,6.50
2023-05-23T11:35:03.150Z,6.20
2023-05-23T11:37:31.730Z,6.40
2023-05-23T11:40:02.046Z,6.53
2023-05-23T11:42:29.920Z,6.87
2023-05-23T11:44:58.141Z,6.47
2023-05-23T11:47:26.086Z,6.80
2023-05-23T11:49:54.652Z,6.90
2023-05-23T11:52:22.601Z,6.73
2023-05-23T11:54:51.390Z,6.70
2023-05-23T11:57:22.259Z,6.30
2023-05-23T11:59:50.206Z,5.50
2023-05-23T12:02:18.085Z,6.77
2023-05-23T12:04:46.118Z,5.43
2023-05-23T12:07:14.017Z,7.00
2023-05-23T12:09:45.155Z,6.53
2023-05-23T12:12:13.737Z,6.93
2023-05-23T12:14:44.733Z,6.20
2023-05-23T12:17:13.960Z,6.53
2023-05-23T12:19:47.642Z,7.60
2023-05-23T12:22:15.536Z,6.73
2023-05-23T12:24:47.694Z,6.93
2023-05-23T12:27:17.482Z,6.80
2023-05-23T12:29:52.202Z,6.30
2023-05-23T12:32:20.284Z,6.40
2023-05-23T12:34:50.626Z,6.90
2023-05-23T12:37:20.431Z,6.60
2023-05-23T12:39:48.569Z,7.27
2023-05-23T12:42:16.474Z,7.57
2023-05-23T12:44:46.176Z,6.77
2023-05-23T12:47:15.064Z,6.73
2023-05-23T12:49:44.864Z,6.30
2023-05-23T12:52:12.872Z,6.90
2023-05-23T12:54:40.776Z,6.30
2023-05-23T12:57:08.724Z,6.47
2023-05-23T12:59:36.627Z,6.63
2023-05-23T13:02:06.013Z,6.80
2023-05-23T13:04:33.950Z,6.43
2023-05-23T13:07:02.027Z,5.97
2023-05-23T13:09:29.989Z,6.63
2023-05-23T13:11:58.862Z,6.10
2023-05-23T13:14:26.826Z,6.03
2023-05-23T13:16:54.812Z,6.33
2023-05-23T13:19:25.319Z,6.47
2023-05-23T13:21:53.716Z,5.90
2023-05-23T13:24:21.941Z,5.93
2023-05-23T13:26:49.856Z,6.70
2023-05-23T13:29:19.987Z,5.73
2023-05-23T13:31:47.968Z,6.57
2023-05-23T13:34:15.960Z,6.60
2023-05-23T13:36:45.284Z,6.60
2023-05-23T13:39:13.182Z,7.27
2023-05-23T13:41:41.195Z,6.27
2023-05-23T13:44:09.150Z,5.83
2023-05-23T13:46:37.080Z,5.87
2023-05-23T13:49:05.056Z,6.20
2023-05-23T13:51:33.219Z,5.90
2023-05-23T13:54:02.526Z,6.07
2023-05-23T13:56:30.476Z,6.30
2023-05-23T13:58:58.381Z,5.10
2023-05-23T14:01:26.300Z,6.23
2023-05-23T14:03:54.431Z,4.97
2023-05-23T14:06:22.393Z,6.17
2023-05-23T14:08:50.393Z,6.27
2023-05-23T14:11:19.665Z,6.20
2023-05-23T14:13:47.563Z,6.03
2023-05-23T14:16:15.502Z,5.43
2023-05-23T14:18:43.772Z,5.90
2023-05-23T14:21:11.926Z,6.00
2023-05-23T14:23:41.936Z,5.03
2023-05-23T14:26:09.882Z,6.13
2023-05-23T14:28:39.165Z,5.63
2023-05-23T14:31:07.201Z,5.20
2023-05-23T14:33:35.147Z,6.30
2023-05-23T14:36:03.191Z,5.30
2023-05-23T14:38:31.165Z,5.30
2023-05-23T14:40:59.899Z,5.40
2023-05-23T14:43:27.844Z,6.30
2023-05-23T14:45:57.333Z,5.30
2023-05-23T14:48:25.243Z,5.83
2023-05-23T14:50:53.235Z,5.90
2023-05-23T14:53:23.893Z,6.10
2023-05-23T14:55:51.972Z,5.13
2023-05-23T14:58:19.889Z,5.70
2023-05-23T15:00:48.220Z,5.40
2023-05-23T15:03:17.891Z,5.30
2023-05-23T15:05:48.441Z,5.27
2023-05-23T15:08:18.179Z,5.70
2023-05-23T15:10:46.402Z,5.40
2023-05-23T15:13:14.330Z,5.50
2023-05-23T15:15:43.046Z,5.90
2023-05-23T15:18:15.146Z,4.87
2023-05-23T15:20:48.481Z,4.73
2023-05-23T15:23:16.592Z,4.60
2023-05-23T15:25:49.478Z,4.90
2023-05-23T15:28:18.139Z,5.20
2023-05-23T15:30:46.037Z,5.10
2023-05-23T15:33:15.896Z,5.13
2023-05-23T15:35:44.059Z,4.77
2023-05-23T15:38:14.734Z,4.50
2023-05-23T15:40:43.770Z,5.20
2023-05-23T15:43:11.967Z,5.23
2023-05-23T15:45:39.860Z,5.00
2023-05-23T15:48:07.881Z,5.03
2023-05-23T15:50:35.847Z,4.47
2023-05-23T15:53:03.851Z,4.30
2023-05-23T15:55:33.101Z,4.80
2023-05-23T15:58:01.037Z,4.97
2023-05-23T16:00:28.961Z,4.20
2023-05-23T16:02:56.877Z,5.17
2023-05-23T16:05:24.852Z,5.00
2023-05-23T16:07:52.784Z,4.43
2023-05-23T16:10:20.994Z,4.73
2023-05-23T16:12:50.235Z,5.40
2023-05-23T16:15:18.165Z,4.67
2023-05-23T16:17:46.330Z,4.90
2023-05-23T16:20:14.336Z,5.03
2023-05-23T16:22:42.455Z,5.13
2023-05-23T16:25:11.824Z,5.63
2023-05-23T16:27:40.566Z,4.87
2023-05-23T16:30:10.809Z,4.60
2023-05-23T16:32:38.815Z,5.30
2023-05-23T16:35:07.683Z,4.97
2023-05-23T16:37:35.729Z,4.87
2023-05-23T16:40:03.725Z,4.83
2023-05-23T16:42:31.611Z,4.73
2023-05-23T16:44:59.509Z,4.10
2023-05-23T16:47:28.834Z,5.07
2023-05-23T16:49:56.802Z,4.43
2023-05-23T16:52:24.759Z,4.50
2023-05-23T16:54:52.655Z,4.47
2023-05-23T16:57:22.920Z,5.40
2023-05-23T16:59:50.876Z,4.43
2023-05-23T17:02:18.936Z,4.60
2023-05-23T17:04:51.431Z,5.50
2023-05-23T17:07:19.659Z,4.63
2023-05-23T17:09:47.585Z,5.33
2023-05-23T17:12:15.507Z,5.13
2023-05-23T17:14:43.528Z,4.83
2023-05-23T17:17:11.478Z,5.40
2023-05-23T17:19:39.394Z,4.73
2023-05-23T17:22:08.696Z,5.23
2023-05-23T17:24:37.565Z,5.23
2023-05-23T17:27:08.153Z,5.07
2023-05-23T17:29:36.215Z,4.27
2023-05-23T17:32:04.295Z,4.90
2023-05-23T17:34:32.287Z,5.50
2023-05-23T17:37:00.194Z,4.70
2023-05-23T17:39:29.674Z,5.20
2023-05-23T17:41:57.557Z,4.90
2023-05-23T17:44:25.726Z,5.10
2023-05-23T17:46:53.865Z,4.67
2023-05-23T17:49:21.784Z,4.97
2023-05-23T17:51:49.747Z,4.30
2023-05-23T17:54:17.742Z,5.07
2023-05-23T17:56:47.746Z,4.40
2023-05-23T17:59:16.387Z,4.87
2023-05-23T18:01:44.435Z,4.70
2023-05-23T18:04:12.358Z,4.67
2023-05-23T18:06:40.292Z,4.57
2023-05-23T18:09:09.713Z,4.83
2023-05-23T18:11:38.250Z,4.60
2023-05-23T18:14:07.896Z,5.27
2023-05-23T18:16:35.852Z,4.53
2023-05-23T18:19:06.002Z,4.63
2023-05-23T18:21:34.872Z,5.00
2023-05-23T18:24:03.681Z,4.40
2023-05-23T18:26:31.917Z,5.63
2023-05-23T18:29:01.218Z,5.10
2023-05-23T18:31:30.560Z,4.40
2023-05-23T18:33:58.854Z,4.43
2023-05-23T18:36:27.658Z,4.70
2023-05-23T18:38:55.621Z,4.47
2023-05-23T18:41:23.567Z,4.10
2023-05-23T18:43:51.650Z,4.57
2023-05-23T18:46:19.589Z,4.23
2023-05-23T18:48:48.886Z,4.77
2023-05-23T18:51:16.975Z,4.03
2023-05-23T18:53:44.891Z,4.90
2023-05-23T18:56:12.890Z,3.80
2023-05-23T18:58:41.420Z,4.30
2023-05-23T19:01:09.365Z,5.10
2023-05-23T19:03:37.748Z,4.20
2023-05-23T19:06:08.009Z,3.90
2023-05-23T19:08:35.898Z,3.93
2023-05-23T19:11:04.830Z,4.20
2023-05-23T19:13:32.721Z,4.17
2023-05-23T19:16:00.745Z,4.20
2023-05-23T19:18:28.709Z,4.33
2023-05-23T19:20:56.637Z,4.30
2023-05-23T19:23:25.873Z,3.70
2023-05-23T19:25:53.773Z,4.80
2023-05-23T19:28:22.013Z,4.27
2023-05-23T19:30:49.921Z,4.13
2023-05-23T19:33:18.773Z,4.90
2023-05-23T19:35:47.552Z,4.53
2023-05-23T19:38:15.566Z,3.87
2023-05-23T19:40:44.812Z,4.07
2023-05-23T19:43:12.758Z,4.00
2023-05-23T19:45:41.075Z,3.90
2023-05-23T19:48:09.155Z,4.10
2023-05-23T19:50:37.420Z,3.60
2023-05-23T19:53:05.327Z,3.93
2023-05-23T19:55:33.833Z,4.07
2023-05-23T19:58:03.344Z,3.67
2023-05-23T20:00:31.399Z,4.13
2023-05-23T20:02:59.388Z,3.40
2023-05-23T20:05:27.459Z,3.83
2023-05-23T20:07:55.488Z,4.30
2023-05-23T20:10:23.417Z,3.77
2023-05-23T20:12:51.284Z,4.00
2023-05-23T20:15:31.307Z,4.13
2023-05-23T20:18:07.671Z,3.60
2023-05-23T20:20:35.785Z,4.20
2023-05-23T20:23:03.824Z,3.30
2023-05-23T20:25:31.736Z,3.50
2023-05-23T20:27:59.718Z,3.77
2023-05-23T20:30:29.056Z,3.57
2023-05-23T20:32:56.993Z,3.70
2023-05-23T20:35:25.015Z,3.27
2023-05-23T20:37:53.578Z,3.77
2023-05-23T20:40:22.219Z,3.40
2023-05-23T20:42:50.158Z,4.67
2023-05-23T20:45:18.285Z,3.27
2023-05-23T20:47:47.977Z,3.77
2023-05-23T20:50:17.404Z,3.40
2023-05-23T20:52:45.351Z,3.30
2023-05-23T20:55:14.126Z,3.80
2023-05-23T20:57:42.093Z,4.03
2023-05-23T21:00:13.036Z,3.47
2023-05-23T21:02:41.999Z,4.23
2023-05-23T21:05:12.541Z,3.47
2023-05-23T21:07:40.453Z,3.90
2023-05-23T21:10:09.416Z,3.40
2023-05-23T21:12:37.323Z,3.60
2023-05-23T21:15:05.842Z,3.50
2023-05-23T21:17:33.781Z,3.60
2023-05-23T21:20:01.749Z,3.50
2023-05-23T21:22:31.006Z,3.40
2023-05-23T21:24:58.950Z,3.53
2023-05-23T21:27:26.910Z,3.53
2023-05-23T21:29:54.825Z,3.40
2023-05-23T21:32:22.832Z,3.50
2023-05-23T21:34:51.388Z,3.70
2023-05-23T21:37:19.362Z,3.43
2023-05-23T21:39:51.849Z,3.80
2023-05-23T21:42:21.443Z,3.00
2023-05-23T21:44:49.462Z,3.60
2023-05-23T21:47:17.360Z,3.60
2023-05-23T21:49:45.375Z,2.53
2023-05-23T21:52:13.299Z,3.40
2023-05-23T21:54:41.181Z,3.30
2023-05-23T21:57:10.450Z,3.43
2023-05-23T21:59:38.330Z,3.40
2023-05-23T22:02:06.324Z,3.47
2023-05-23T22:04:34.613Z,3.50
2023-05-23T22:07:02.540Z,3.40
2023-05-23T22:09:30.421Z,3.70
2023-05-23T22:11:58.757Z,3.50
2023-05-23T22:14:28.040Z,3.20
2023-05-23T22:16:56.084Z,2.90
2023-05-23T22:19:26.250Z,3.40
2023-05-23T22:21:54.282Z,2.83
2023-05-23T22:24:22.195Z,2.87
2023-05-23T22:26:50.097Z,3.40
2023-05-23T22:29:18.045Z,3.03
2023-05-23T22:31:48.488Z,3.00
2023-05-23T22:34:16.566Z,3.40
2023-05-23T22:36:44.959Z,2.70
2023-05-23T22:39:13.696Z,3.07
2023-05-23T22:41:41.713Z,3.33
2023-05-23T22:44:09.691Z,2.83
2023-05-23T22:46:39.448Z,3.50
2023-05-23T22:49:08.829Z,2.73
2023-05-23T22:51:36.800Z,3.20
2023-05-23T22:54:04.851Z,3.43
2023-05-23T22:56:32.758Z,3.60
2023-05-23T22:59:00.842Z,2.67
2023-05-23T23:01:28.750Z,3.40
2023-05-23T23:03:56.715Z,3.53
2023-05-23T23:06:26.600Z,3.57
2023-05-23T23:08:54.552Z,3.30
2023-05-23T23:11:22.463Z,3.17
2023-05-23T23:13:50.354Z,3.10
2023-05-23T23:16:19.470Z,3.20
2023-05-23T23:18:49.030Z,2.60
2023-05-23T23:21:17.502Z,2.80
2023-05-23T23:23:46.844Z,3.37
2023-05-23T23:26:14.734Z,3.00
2023-05-23T23:28:42.633Z,3.20
2023-05-23T23:31:10.549Z,3.30
2023-05-23T23:33:38.488Z,3.23
2023-05-23T23:36:07.120Z,3.00
2023-05-23T23:38:35.043Z,3.10
2023-05-23T23:41:04.296Z,2.90
2023-05-23T23:43:32.282Z,2.77
2023-05-23T23:46:00.375Z,2.60
2023-05-23T23:48:28.305Z,2.87
2023-05-23T23:50:56.958Z,3.20
2023-05-23T23:53:24.942Z,2.90
2023-05-23T23:55:52.825Z,2.70
2023-05-23T23:58:22.078Z,3.20
